createdAt,value
2018-04-12T00:00:32.539Z,8.07
2018-04-12T00:01:35.000Z,8.65
2018-04-12T00:02:37.468Z,7.93
2018-04-12T00:03:40.705Z,7.93
2018-04-12T00:04:43.171Z,7.65
2018-04-12T00:05:45.651Z,8.02
2018-04-12T00:06:48.120Z,8.07
2018-04-12T00:07:50.588Z,8.77
2018-04-12T00:08:53.053Z,8.48
2018-04-12T00:09:55.527Z,8.65
2018-04-12T00:10:58.018Z,8.77
2018-04-12T00:12:01.256Z,8.70
2018-04-12T00:13:03.727Z,7.90
2018-04-12T00:14:06.200Z,8.13
2018-04-12T00:15:08.664Z,7.93
2018-04-12T00:16:11.153Z,8.40
2018-04-12T00:17:14.386Z,7.75
2018-04-12T00:18:16.851Z,7.87
2018-04-12T00:19:19.312Z,7.72
2018-04-12T00:20:21.784Z,7.95
2018-04-12T00:21:24.260Z,8.35
2018-04-12T00:22:27.253Z,8.10
2018-04-12T00:23:29.716Z,7.85
2018-04-12T00:24:32.390Z,8.02
2018-04-12T00:25:34.859Z,7.80
2018-04-12T00:26:37.354Z,8.40
2018-04-12T00:27:39.817Z,9.63
2018-04-12T00:28:42.276Z,8.82
2018-04-12T00:29:44.746Z,9.38
2018-04-12T00:30:47.216Z,8.68
2018-04-12T00:31:49.722Z,9.05
2018-04-12T00:32:52.228Z,8.90
2018-04-12T00:33:55.459Z,8.48
2018-04-12T00:34:57.923Z,9.27
2018-04-12T00:36:00.392Z,8.40
2018-04-12T00:37:02.884Z,8.30
2018-04-12T00:38:05.358Z,8.70
2018-04-12T00:39:07.928Z,8.80
2018-04-12T00:40:11.160Z,7.95
2018-04-12T00:41:13.668Z,8.05
2018-04-12T00:42:16.164Z,8.35
2018-04-12T00:43:18.636Z,8.30
2018-04-12T00:44:21.100Z,7.97
2018-04-12T00:45:23.564Z,8.05
2018-04-12T00:46:26.028Z,8.38
2018-04-12T00:47:28.508Z,8.35
2018-04-12T00:48:30.972Z,7.85
2018-04-12T00:49:33.436Z,7.60
2018-04-12T00:50:35.899Z,7.97
2018-04-12T00:51:38.369Z,7.60
2018-04-12T00:52:40.848Z,7.45
2018-04-12T00:53:55.164Z,7.62
2018-04-12T00:54:57.635Z,7.55
2018-04-12T00:56:00.767Z,7.82
2018-04-12T00:57:04.036Z,7.40
2018-04-12T00:58:08.981Z,7.72
2018-04-12T00:59:12.211Z,8.05
2018-04-12T01:00:14.680Z,8.52
2018-04-12T01:01:17.148Z,8.32
2018-04-12T01:02:19.614Z,8.48
2018-04-12T01:03:22.096Z,8.05
2018-04-12T01:04:24.559Z,7.85
2018-04-12T01:05:27.024Z,8.07
2018-04-12T01:06:29.488Z,7.53
2018-04-12T01:07:32.085Z,8.13
2018-04-12T01:08:35.332Z,7.95
2018-04-12T01:09:37.796Z,7.90
2018-04-12T01:10:40.259Z,7.87
2018-04-12T01:11:43.492Z,8.30
2018-04-12T01:12:45.956Z,8.18
2018-04-12T01:13:48.444Z,7.97
2018-04-12T01:14:50.912Z,7.78
2018-04-12T01:15:53.375Z,8.07
2018-04-12T01:16:55.844Z,8.68
2018-04-12T01:17:58.317Z,7.85
2018-04-12T01:19:00.804Z,7.57
2018-04-12T01:20:03.275Z,8.05
2018-04-12T01:21:05.748Z,7.60
2018-04-12T01:22:08.984Z,7.53
2018-04-12T01:23:11.458Z,7.72
2018-04-12T01:24:13.974Z,8.07
2018-04-12T01:25:17.200Z,8.10
2018-04-12T01:26:19.667Z,8.02
2018-04-12T01:27:22.129Z,7.37
2018-04-12T01:28:24.644Z,7.47
2018-04-12T01:29:27.903Z,7.85
2018-04-12T01:30:30.408Z,8.38
2018-04-12T01:31:32.875Z,8.27
2018-04-12T01:32:35.337Z,7.90
2018-04-12T01:33:37.804Z,8.48
2018-04-12T01:34:40.287Z,8.20
2018-04-12T01:35:42.753Z,7.95
2018-04-12T01:36:45.253Z,8.32
2018-04-12T01:37:47.717Z,8.23
2018-04-12T01:38:50.180Z,8.35
2018-04-12T01:39:52.660Z,7.97
2018-04-12T01:40:55.899Z,8.13
2018-04-12T01:41:58.366Z,7.97
2018-04-12T01:43:00.833Z,7.87
2018-04-12T01:44:03.300Z,8.27
2018-04-12T01:45:05.797Z,8.10
2018-04-12T01:46:08.272Z,8.45
2018-04-12T01:47:11.511Z,8.48
2018-04-12T01:48:13.976Z,7.85
2018-04-12T01:49:16.444Z,8.13
2018-04-12T01:50:18.924Z,7.47
2018-04-12T01:51:21.392Z,7.50
2018-04-12T01:52:23.859Z,7.90
2018-04-12T01:53:26.319Z,8.25
2018-04-12T01:54:28.784Z,8.32
2018-04-12T01:55:31.280Z,7.53
2018-04-12T01:56:33.780Z,7.90
2018-04-12T01:57:36.250Z,7.75
2018-04-12T01:58:38.712Z,8.48
2018-04-12T01:59:41.176Z,7.97
2018-04-12T02:00:43.671Z,8.32
2018-04-12T02:01:46.136Z,8.38
2018-04-12T02:02:48.596Z,7.97
2018-04-12T02:03:51.059Z,8.20
2018-04-12T02:04:53.544Z,8.23
2018-04-12T02:05:56.795Z,8.13
2018-04-12T02:06:59.272Z,8.63
2018-04-12T02:08:01.738Z,8.10
2018-04-12T02:09:04.208Z,8.02
2018-04-12T02:10:06.671Z,8.40
2018-04-12T02:11:09.152Z,8.20
2018-04-12T02:12:12.384Z,7.78
2018-04-12T02:13:14.845Z,8.25
2018-04-12T02:14:17.308Z,8.18
2018-04-12T02:15:20.644Z,8.38
2018-04-12T02:16:23.896Z,7.97
2018-04-12T02:17:26.352Z,7.80
2018-04-12T02:18:28.835Z,7.82
2018-04-12T02:19:31.300Z,7.95
2018-04-12T02:20:34.556Z,8.18
2018-04-12T02:21:37.041Z,8.45
2018-04-12T02:22:39.509Z,7.90
2018-04-12T02:23:41.978Z,7.28
2018-04-12T02:24:44.444Z,7.75
2018-04-12T02:25:46.920Z,7.78
2018-04-12T02:26:49.460Z,7.40
2018-04-12T02:27:51.937Z,8.02
2018-04-12T02:28:54.404Z,7.65
2018-04-12T02:29:56.871Z,7.55
2018-04-12T02:30:59.340Z,8.23
2018-04-12T02:32:01.836Z,7.62
2018-04-12T02:33:04.310Z,7.82
2018-04-12T02:34:06.775Z,8.60
2018-04-12T02:35:09.240Z,7.93
2018-04-12T02:36:11.718Z,7.95
2018-04-12T02:37:14.195Z,8.27
2018-04-12T02:38:16.663Z,8.38
2018-04-12T02:39:19.133Z,8.40
2018-04-12T02:40:21.596Z,8.80
2018-04-12T02:41:24.056Z,9.32
2018-04-12T02:42:26.541Z,8.20
2018-04-12T02:43:29.008Z,8.90
2018-04-12T02:44:31.472Z,8.07
2018-04-12T02:45:33.952Z,8.48
2018-04-12T02:46:37.188Z,8.48
2018-04-12T02:47:39.667Z,8.70
2018-04-12T02:48:42.131Z,8.20
2018-04-12T02:49:44.596Z,7.30
2018-04-12T02:50:47.061Z,7.93
2018-04-12T02:51:49.528Z,7.55
2018-04-12T02:52:52.012Z,8.13
2018-04-12T02:53:54.488Z,8.07
2018-04-12T02:54:57.721Z,8.48
2018-04-12T02:56:00.184Z,8.02
2018-04-12T02:57:02.656Z,8.90
2018-04-12T02:58:05.140Z,8.80
2018-04-12T02:59:07.604Z,7.93
2018-04-12T03:00:10.089Z,8.07
2018-04-12T03:01:13.332Z,7.80
2018-04-12T03:02:15.808Z,8.48
2018-04-12T03:03:18.304Z,8.43
2018-04-12T03:04:21.533Z,8.18
2018-04-12T03:05:24.009Z,7.93
2018-04-12T03:06:26.471Z,8.43
2018-04-12T03:07:28.941Z,8.35
2018-04-12T03:08:31.431Z,8.68
2018-04-12T03:09:34.663Z,8.45
2018-04-12T03:10:37.157Z,8.35
2018-04-12T03:11:39.676Z,8.27
2018-04-12T03:12:42.144Z,8.68
2018-04-12T03:13:44.628Z,8.68
2018-04-12T03:14:47.100Z,8.57
2018-04-12T03:15:49.567Z,8.55
2018-04-12T03:16:52.040Z,9.27
2018-04-12T03:17:54.499Z,7.97
2018-04-12T03:18:56.988Z,8.57
2018-04-12T03:19:59.452Z,9.10
2018-04-12T03:21:01.916Z,8.30
2018-04-12T03:22:04.386Z,8.02
2018-04-12T03:23:07.136Z,8.18
2018-04-12T03:24:09.616Z,8.68
2018-04-12T03:25:12.145Z,8.07
2018-04-12T03:26:14.608Z,8.40
2018-04-12T03:27:17.080Z,8.20
2018-04-12T03:28:19.547Z,8.48
2018-04-12T03:29:22.048Z,8.00
2018-04-12T03:30:24.513Z,8.15
2018-04-12T03:31:26.983Z,8.45
2018-04-12T03:32:30.220Z,8.25
2018-04-12T03:33:33.507Z,8.55
2018-04-12T03:34:35.988Z,8.90
2018-04-12T03:35:38.456Z,8.55
2018-04-12T03:36:40.927Z,8.98
2018-04-12T03:37:43.399Z,9.25
2018-04-12T03:38:46.613Z,8.52
2018-04-12T03:39:49.091Z,7.72
2018-04-12T03:40:51.565Z,8.63
2018-04-12T03:41:54.068Z,8.43
2018-04-12T03:42:56.591Z,8.52
2018-04-12T03:43:59.056Z,8.13
2018-04-12T03:45:01.602Z,8.50
2018-04-12T03:46:04.062Z,7.85
2018-04-12T03:47:06.533Z,8.65
2018-04-12T03:48:09.010Z,8.43
2018-04-12T03:49:11.521Z,8.60
2018-04-12T03:50:13.987Z,8.15
2018-04-12T03:51:16.449Z,8.05
2018-04-12T03:52:19.679Z,8.13
2018-04-12T03:53:22.140Z,8.57
2018-04-12T03:54:24.608Z,8.73
2018-04-12T03:55:27.097Z,8.57
2018-04-12T03:56:29.563Z,9.05
2018-04-12T03:57:32.065Z,9.63
2018-04-12T03:58:35.300Z,9.50
2018-04-12T03:59:37.766Z,9.40
2018-04-12T04:00:40.273Z,7.87
2018-04-12T04:01:42.807Z,8.35
2018-04-12T04:02:45.988Z,8.13
2018-04-12T04:03:48.455Z,8.88
2018-04-12T04:04:50.919Z,8.43
2018-04-12T04:05:53.407Z,8.32
2018-04-12T04:06:55.884Z,9.05
2018-04-12T04:07:59.148Z,8.95
2018-04-12T04:09:01.703Z,8.80
2018-04-12T04:10:04.174Z,8.15
2018-04-12T04:11:06.656Z,8.32
2018-04-12T04:12:09.741Z,8.70
2018-04-12T04:13:12.295Z,8.77
2018-04-12T04:14:26.561Z,9.07
2018-04-12T04:15:45.648Z,8.50
2018-04-12T04:16:59.984Z,8.18
2018-04-12T04:18:14.372Z,8.60
2018-04-12T04:19:28.873Z,9.00
2018-04-12T04:20:43.350Z,8.60
2018-04-12T04:21:46.665Z,9.05
2018-04-12T04:22:49.900Z,8.95
2018-04-12T04:23:52.363Z,8.82
2018-04-12T04:24:54.835Z,8.70
2018-04-12T04:25:57.307Z,8.95
2018-04-12T04:26:59.824Z,9.05
2018-04-12T04:28:02.293Z,9.27
2018-04-12T04:29:04.761Z,9.77
2018-04-12T04:30:07.941Z,9.90
2018-04-12T04:31:10.408Z,9.32
2018-04-12T04:32:12.884Z,9.48
2018-04-12T04:33:15.351Z,9.48
2018-04-12T04:34:17.815Z,9.93
2018-04-12T04:35:20.282Z,9.88
2018-04-12T04:36:22.748Z,9.98
2018-04-12T04:37:25.236Z,9.32
2018-04-12T04:38:27.736Z,9.52
2018-04-12T04:39:30.976Z,10.18
2018-04-12T04:40:33.444Z,10.35
2018-04-12T04:41:35.912Z,8.93
2018-04-12T04:42:38.404Z,10.43
2018-04-12T04:43:41.640Z,10.05
2018-04-12T04:44:44.142Z,9.95
2018-04-12T04:45:46.609Z,10.45
2018-04-12T04:46:49.079Z,10.27
2018-04-12T04:47:51.579Z,9.82
2018-04-12T04:48:54.064Z,10.32
2018-04-12T04:49:56.532Z,10.40
2018-04-12T04:50:59.024Z,10.88
2018-04-12T04:52:01.493Z,10.90
2018-04-12T04:53:03.988Z,10.23
2018-04-12T04:54:06.459Z,9.85
2018-04-12T04:55:08.993Z,10.70
2018-04-12T04:56:11.469Z,10.82
2018-04-12T04:57:14.700Z,11.00
2018-04-12T04:58:17.188Z,11.48
2018-04-12T04:59:19.655Z,11.63
2018-04-12T05:00:22.136Z,12.20
2018-04-12T05:01:24.604Z,12.00
2018-04-12T05:02:27.073Z,11.15
2018-04-12T05:03:30.355Z,11.15
2018-04-12T05:04:33.608Z,12.48
2018-04-12T05:05:36.105Z,11.93
2018-04-12T05:06:39.340Z,12.55
2018-04-12T05:07:41.816Z,12.45
2018-04-12T05:08:44.301Z,13.35
2018-04-12T05:09:46.768Z,13.48
2018-04-12T05:10:49.437Z,15.70
2018-04-12T05:11:53.508Z,15.70
2018-04-12T05:12:55.980Z,16.25
2018-04-12T05:13:58.479Z,17.67
2018-04-12T05:15:01.769Z,15.65
2018-04-12T05:16:04.251Z,13.20
2018-04-12T05:17:06.720Z,14.07
2018-04-12T05:18:09.196Z,13.25
2018-04-12T05:19:11.683Z,15.52
2018-04-12T05:20:14.163Z,17.10
2018-04-12T05:21:16.640Z,14.90
2018-04-12T05:22:19.886Z,15.73
2018-04-12T05:23:22.368Z,15.52
2018-04-12T05:24:24.865Z,17.52
2018-04-12T05:25:28.095Z,16.45
2018-04-12T05:26:30.564Z,17.00
2018-04-12T05:27:33.036Z,17.33
2018-04-12T05:28:35.516Z,17.20
2018-04-12T05:29:38.003Z,17.65
2018-04-12T05:30:41.244Z,16.85
2018-04-12T05:31:43.715Z,17.95
2018-04-12T05:32:46.183Z,18.00
2018-04-12T05:33:48.659Z,18.30
2018-04-12T05:34:51.145Z,18.65
2018-04-12T05:35:54.468Z,19.25
2018-04-12T05:36:56.951Z,18.77
2018-04-12T05:37:59.532Z,19.27
2018-04-12T05:39:04.356Z,19.92
2018-04-12T05:40:06.867Z,19.90
2018-04-12T05:41:09.548Z,20.88
2018-04-12T05:42:12.025Z,20.98
2018-04-12T05:43:14.496Z,22.52
2018-04-12T05:44:16.967Z,21.50
2018-04-12T05:45:20.352Z,22.05
2018-04-12T05:46:22.822Z,21.60
2018-04-12T05:47:25.300Z,23.17
2018-04-12T05:48:27.775Z,23.05
2018-04-12T05:49:30.304Z,23.83
2018-04-12T05:50:32.796Z,22.75
2018-04-12T05:51:35.264Z,23.00
2018-04-12T05:52:37.732Z,24.60
2018-04-12T05:53:41.009Z,25.20
2018-04-12T05:54:43.476Z,23.35
2018-04-12T05:55:46.756Z,25.70
2018-04-12T05:56:50.035Z,24.77
2018-04-12T05:57:52.527Z,24.90
2018-04-12T05:58:55.767Z,25.10
2018-04-12T05:59:58.332Z,25.27
2018-04-12T06:01:00.832Z,26.12
2018-04-12T06:02:04.120Z,26.02
2018-04-12T06:03:07.352Z,26.87
2018-04-12T06:04:09.830Z,26.45
2018-04-12T06:05:12.302Z,26.62
2018-04-12T06:06:14.788Z,27.65
2018-04-12T06:07:18.026Z,28.95
2018-04-12T06:08:20.492Z,27.95
2018-04-12T06:09:22.964Z,27.87
2018-04-12T06:10:25.509Z,29.63
2018-04-12T06:11:27.996Z,28.27
2018-04-12T06:12:30.468Z,29.85
2018-04-12T06:13:32.971Z,29.55
2018-04-12T06:14:36.244Z,30.52
2018-04-12T06:15:38.711Z,29.42
2018-04-12T06:16:41.969Z,32.97
2018-04-12T06:17:44.455Z,31.37
2018-04-12T06:18:46.977Z,31.67
2018-04-12T06:19:49.464Z,32.00
2018-04-12T06:20:51.940Z,33.00
2018-04-12T06:21:54.481Z,36.40
2018-04-12T06:22:56.968Z,34.28
2018-04-12T06:23:59.444Z,33.63
2018-04-12T06:25:01.924Z,33.53
2018-04-12T06:26:05.208Z,34.30
2018-04-12T06:27:08.488Z,35.08
2018-04-12T06:28:11.728Z,37.53
2018-04-12T06:29:14.199Z,34.25
2018-04-12T06:30:16.675Z,35.45
2018-04-12T06:31:19.149Z,34.88
2018-04-12T06:32:21.700Z,37.20
2018-04-12T06:33:24.180Z,35.60
2018-04-12T06:34:26.661Z,35.20
2018-04-12T06:35:30.070Z,36.05
2018-04-12T06:36:32.549Z,36.72
2018-04-12T06:37:35.040Z,36.72
2018-04-12T06:38:37.520Z,38.30
2018-04-12T06:39:39.987Z,35.33
2018-04-12T06:40:42.456Z,36.53
2018-04-12T06:41:44.935Z,35.33
2018-04-12T06:42:48.183Z,36.25
2018-04-12T06:43:51.656Z,34.83
2018-04-12T06:44:54.398Z,34.67
2018-04-12T06:45:56.868Z,36.42
2018-04-12T06:46:59.343Z,38.13
2018-04-12T06:48:01.827Z,38.55
2018-04-12T06:49:04.296Z,38.38
2018-04-12T06:50:06.768Z,37.42
2018-04-12T06:51:09.239Z,37.20
2018-04-12T06:52:11.744Z,37.92
2018-04-12T06:53:14.232Z,36.80
2018-04-12T06:54:16.744Z,37.55
2018-04-12T06:55:20.078Z,39.35
2018-04-12T06:56:22.680Z,39.55
2018-04-12T06:57:25.156Z,38.67
2018-04-12T06:58:27.647Z,39.45
2018-04-12T06:59:30.182Z,39.45
2018-04-12T07:00:32.660Z,37.95
2018-04-12T07:01:35.984Z,39.38
2018-04-12T07:02:38.452Z,38.63
2018-04-12T07:03:40.953Z,38.38
2018-04-12T07:04:43.424Z,38.63
2018-04-12T07:05:45.900Z,39.30
2018-04-12T07:06:48.440Z,40.47
2018-04-12T07:07:50.969Z,39.83
2018-04-12T07:08:53.508Z,39.05
2018-04-12T07:09:56.743Z,40.17
2018-04-12T07:10:59.216Z,40.78
2018-04-12T07:12:01.684Z,40.88
2018-04-12T07:13:04.159Z,40.03
2018-04-12T07:14:06.639Z,42.33
2018-04-12T07:15:09.891Z,42.62
2018-04-12T07:16:12.437Z,42.08
2018-04-12T07:17:14.904Z,41.30
2018-04-12T07:18:17.450Z,40.60
2018-04-12T07:19:19.936Z,40.95
2018-04-12T07:20:22.446Z,42.50
2018-04-12T07:21:24.916Z,43.40
2018-04-12T07:22:28.152Z,42.65
2018-04-12T07:23:30.624Z,43.90
2018-04-12T07:24:33.108Z,43.72
2018-04-12T07:25:35.588Z,43.70
2018-04-12T07:26:38.847Z,42.80
2018-04-12T07:27:42.035Z,43.05
2018-04-12T07:28:44.509Z,43.22
2018-04-12T07:29:47.795Z,46.37
2018-04-12T07:30:50.272Z,44.38
2018-04-12T07:31:52.780Z,42.53
2018-04-12T07:32:55.260Z,42.65
2018-04-12T07:33:58.052Z,42.72
2018-04-12T07:35:00.548Z,43.53
2018-04-12T07:36:03.042Z,42.85
2018-04-12T07:37:05.532Z,44.35
2018-04-12T07:38:08.072Z,42.45
2018-04-12T07:39:10.544Z,42.90
2018-04-12T07:40:13.899Z,44.05
2018-04-12T07:41:16.366Z,46.25
2018-04-12T07:42:18.892Z,42.80
2018-04-12T07:43:21.372Z,42.17
2018-04-12T07:44:24.608Z,40.10
2018-04-12T07:45:27.100Z,42.33
2018-04-12T07:46:29.576Z,41.58
2018-04-12T07:47:32.053Z,38.53
2018-04-12T07:48:35.296Z,39.30
2018-04-12T07:49:37.782Z,39.55
2018-04-12T07:50:40.268Z,41.42
2018-04-12T07:51:43.515Z,40.67
2018-04-12T07:52:45.983Z,41.03
2018-04-12T07:53:48.460Z,38.22
2018-04-12T07:54:50.935Z,40.12
2018-04-12T07:55:54.188Z,39.97
2018-04-12T07:56:56.659Z,37.85
2018-04-12T07:57:59.147Z,42.50
2018-04-12T07:59:02.446Z,36.03
2018-04-12T08:00:04.921Z,40.38
2018-04-12T08:01:07.444Z,40.25
2018-04-12T08:02:09.912Z,42.45
2018-04-12T08:03:12.380Z,42.53
2018-04-12T08:04:14.852Z,42.83
2018-04-12T08:05:18.084Z,41.60
2018-04-12T08:06:20.573Z,43.45
2018-04-12T08:07:23.040Z,43.22
2018-04-12T08:08:25.532Z,41.75
2018-04-12T08:09:28.780Z,43.40
2018-04-12T08:10:31.272Z,41.05
2018-04-12T08:11:33.759Z,39.40
2018-04-12T08:12:36.988Z,41.05
2018-04-12T08:13:39.472Z,41.33
2018-04-12T08:14:41.943Z,40.47
2018-04-12T08:15:44.436Z,40.75
2018-04-12T08:16:47.724Z,40.35
2018-04-12T08:17:50.222Z,40.50
2018-04-12T08:18:52.688Z,38.40
2018-04-12T08:19:55.215Z,38.67
2018-04-12T08:20:57.685Z,37.95
2018-04-12T08:22:00.188Z,40.08
2018-04-12T08:23:02.655Z,37.67
2018-04-12T08:24:05.132Z,37.95
2018-04-12T08:25:07.675Z,37.65
2018-04-12T08:26:10.160Z,38.20
2018-04-12T08:27:12.660Z,37.45
2018-04-12T08:28:15.919Z,37.22
2018-04-12T08:29:18.388Z,34.65
2018-04-12T08:30:20.860Z,38.63
2018-04-12T08:31:24.107Z,38.67
2018-04-12T08:32:26.607Z,35.97
2018-04-12T08:33:29.896Z,38.42
2018-04-12T08:34:33.148Z,37.10
2018-04-12T08:35:35.672Z,38.95
2018-04-12T08:36:38.135Z,35.53
2018-04-12T08:37:40.740Z,31.65
2018-04-12T08:38:43.212Z,36.00
2018-04-12T08:39:45.688Z,34.45
2018-04-12T08:40:48.207Z,34.33
2018-04-12T08:41:50.680Z,35.28
2018-04-12T08:42:53.172Z,33.72
2018-04-12T08:43:55.828Z,33.53
2018-04-12T08:44:58.288Z,33.00
2018-04-12T08:46:00.760Z,35.42
2018-04-12T08:47:03.230Z,36.70
2018-04-12T08:48:05.715Z,35.05
2018-04-12T08:49:08.188Z,33.10
2018-04-12T08:50:11.578Z,32.70
2018-04-12T08:51:14.809Z,31.60
2018-04-12T08:52:17.279Z,32.53
2018-04-12T08:53:19.775Z,33.50
2018-04-12T08:54:22.281Z,32.05
2018-04-12T08:55:24.758Z,32.05
2018-04-12T08:56:27.223Z,30.67
2018-04-12T08:57:29.716Z,30.33
2018-04-12T08:58:32.265Z,31.67
2018-04-12T08:59:34.740Z,32.80
2018-04-12T09:00:37.218Z,29.92
2018-04-12T09:01:39.690Z,20.27
2018-04-12T09:02:42.171Z,30.80
2018-04-12T09:03:45.428Z,31.70
2018-04-12T09:04:47.967Z,31.90
2018-04-12T09:05:50.444Z,29.65
2018-04-12T09:06:52.912Z,24.55
2018-04-12T09:07:55.380Z,33.83
2018-04-12T09:08:57.871Z,32.50
2018-04-12T09:10:00.385Z,36.30
2018-04-12T09:11:02.856Z,33.72
2018-04-12T09:12:05.332Z,33.60
2018-04-12T09:13:08.663Z,31.33
2018-04-12T09:14:11.940Z,33.00
2018-04-12T09:15:15.184Z,32.90
2018-04-12T09:16:17.670Z,34.63
2018-04-12T09:17:20.142Z,33.47
2018-04-12T09:18:22.611Z,32.70
2018-04-12T09:19:25.106Z,33.85
2018-04-12T09:20:27.627Z,32.72
2018-04-12T09:21:30.200Z,35.65
2018-04-12T09:22:32.672Z,31.30
2018-04-12T09:23:35.927Z,33.70
2018-04-12T09:24:38.416Z,30.08
2018-04-12T09:25:40.908Z,30.90
2018-04-12T09:26:43.386Z,31.02
2018-04-12T09:27:45.905Z,32.08
2018-04-12T09:28:48.396Z,32.05
2018-04-12T09:29:51.675Z,32.38
2018-04-12T09:30:54.944Z,31.40
2018-04-12T09:31:57.415Z,31.27
2018-04-12T09:33:00.659Z,31.45
2018-04-12T09:34:03.132Z,30.58
2018-04-12T09:35:05.633Z,31.02
2018-04-12T09:36:08.876Z,31.35
2018-04-12T09:37:11.360Z,30.17
2018-04-12T09:38:13.856Z,30.58
2018-04-12T09:39:17.101Z,30.67
2018-04-12T09:40:19.609Z,31.12
2018-04-12T09:41:22.135Z,28.02
2018-04-12T09:42:24.577Z,29.42
2018-04-12T09:43:27.048Z,31.48
2018-04-12T09:44:29.548Z,28.45
2018-04-12T09:45:32.858Z,30.60
2018-04-12T09:46:35.344Z,30.67
2018-04-12T09:47:37.830Z,32.17
2018-04-12T09:48:40.333Z,29.85
2018-04-12T09:49:43.588Z,29.92
2018-04-12T09:50:46.095Z,30.30
2018-04-12T09:51:48.562Z,30.83
2018-04-12T09:52:51.032Z,31.58
2018-04-12T09:53:54.384Z,30.08
2018-04-12T09:54:57.621Z,31.45
2018-04-12T09:56:00.118Z,30.92
2018-04-12T09:57:02.585Z,30.33
2018-04-12T09:58:05.060Z,30.30
2018-04-12T09:59:08.296Z,31.73
2018-04-12T10:00:10.769Z,30.77
2018-04-12T10:01:15.111Z,30.08
2018-04-12T10:02:33.613Z,30.00
2018-04-12T10:03:36.084Z,31.05
2018-04-12T10:04:44.229Z,30.95
2018-04-12T10:05:53.201Z,31.70
2018-04-12T10:07:01.416Z,31.17
2018-04-12T10:08:10.446Z,32.65
2018-04-12T10:09:14.837Z,31.15
2018-04-12T10:10:17.360Z,30.12
2018-04-12T10:11:19.849Z,31.00
2018-04-12T10:12:22.348Z,29.70
2018-04-12T10:13:24.860Z,31.50
2018-04-12T10:14:28.264Z,31.67
2018-04-12T10:15:30.738Z,31.83
2018-04-12T10:16:33.246Z,31.70
2018-04-12T10:17:35.720Z,31.40
2018-04-12T10:18:38.212Z,31.45
2018-04-12T10:19:40.680Z,30.15
2018-04-12T10:20:43.175Z,31.48
2018-04-12T10:21:45.662Z,30.23
2018-04-12T10:22:48.922Z,30.58
2018-04-12T10:23:51.396Z,30.15
2018-04-12T10:24:53.884Z,30.33
2018-04-12T10:25:57.130Z,32.00
2018-04-12T10:26:59.602Z,32.00
2018-04-12T10:28:02.095Z,31.70
2018-04-12T10:29:05.331Z,29.87
2018-04-12T10:30:07.825Z,32.10
2018-04-12T10:31:11.068Z,31.20
2018-04-12T10:32:13.606Z,31.70
2018-04-12T10:33:16.131Z,30.08
2018-04-12T10:34:19.399Z,31.30
2018-04-12T10:35:21.876Z,32.63
2018-04-12T10:36:24.351Z,32.72
2018-04-12T10:37:27.592Z,31.50
2018-04-12T10:38:30.076Z,32.95
2018-04-12T10:39:32.616Z,30.60
2018-04-12T10:40:35.123Z,32.55
2018-04-12T10:41:37.622Z,31.62
2018-04-12T10:42:40.840Z,31.05
2018-04-12T10:43:43.336Z,31.37
2018-04-12T10:44:45.803Z,31.65
2018-04-12T10:45:49.040Z,30.88
2018-04-12T10:46:51.516Z,31.75
2018-04-12T10:47:53.988Z,30.17
2018-04-12T10:48:56.476Z,29.80
2018-04-12T10:49:58.971Z,31.62
2018-04-12T10:51:01.495Z,31.83
2018-04-12T10:52:03.975Z,29.63
2018-04-12T10:53:06.448Z,29.98
2018-04-12T10:54:09.704Z,30.05
2018-04-12T10:55:12.188Z,31.05
2018-04-12T10:56:16.169Z,29.90
2018-04-12T10:57:18.640Z,30.35
2018-04-12T10:58:21.113Z,30.58
2018-04-12T10:59:23.614Z,33.75
2018-04-12T11:00:26.091Z,33.22
2018-04-12T11:01:28.561Z,31.62
2018-04-12T11:02:31.041Z,32.08
2018-04-12T11:03:33.512Z,30.92
2018-04-12T11:04:36.041Z,29.40
2018-04-12T11:05:38.512Z,29.40
2018-04-12T11:06:40.988Z,29.90
2018-04-12T11:07:43.601Z,29.95
2018-04-12T11:08:46.844Z,28.90
2018-04-12T11:09:49.340Z,29.87
2018-04-12T11:10:51.850Z,28.42
2018-04-12T11:11:54.322Z,28.52
2018-04-12T11:12:56.792Z,29.75
2018-04-12T11:13:59.268Z,30.10
2018-04-12T11:15:01.764Z,30.30
2018-04-12T11:16:04.580Z,29.63
2018-04-12T11:17:07.060Z,30.52
2018-04-12T11:18:09.529Z,28.58
2018-04-12T11:19:12.000Z,31.55
2018-04-12T11:20:14.495Z,30.40
2018-04-12T11:21:16.979Z,31.12
2018-04-12T11:22:20.216Z,29.40
2018-04-12T11:23:22.691Z,29.45
2018-04-12T11:24:25.207Z,30.02
2018-04-12T11:25:28.497Z,30.42
2018-04-12T11:26:30.925Z,30.23
2018-04-12T11:27:34.163Z,29.58
2018-04-12T11:28:36.657Z,30.45
2018-04-12T11:29:39.112Z,44.28
2018-04-12T11:30:41.614Z,31.23
2018-04-12T11:31:44.879Z,30.33
2018-04-12T11:32:48.144Z,30.98
2018-04-12T11:33:50.616Z,29.17
2018-04-12T11:34:53.131Z,31.75
2018-04-12T11:35:55.616Z,30.48
2018-04-12T11:36:58.147Z,29.87
2018-04-12T11:38:00.593Z,30.37
2018-04-12T11:39:03.831Z,31.77
2018-04-12T11:40:06.304Z,31.62
2018-04-12T11:41:08.799Z,95.00
2018-04-12T11:42:12.035Z,37.03
2018-04-12T11:43:14.503Z,30.65
2018-04-12T11:44:16.975Z,30.10
2018-04-12T11:45:19.529Z,31.42
2018-04-12T11:46:22.007Z,30.55
2018-04-12T11:47:24.488Z,30.20
2018-04-12T11:48:26.999Z,29.42
2018-04-12T11:49:29.499Z,30.33
2018-04-12T11:50:31.971Z,31.98
2018-04-12T11:51:34.482Z,29.73
2018-04-12T11:52:37.711Z,31.00
2018-04-12T11:53:40.181Z,31.92
2018-04-12T11:54:42.677Z,30.85
2018-04-12T11:55:45.166Z,31.65
2018-04-12T11:56:48.457Z,29.87
2018-04-12T11:57:50.966Z,30.27
2018-04-12T11:58:53.435Z,30.33
2018-04-12T11:59:55.932Z,30.40
2018-04-12T12:00:59.164Z,29.65
2018-04-12T12:02:01.660Z,30.50
2018-04-12T12:03:04.188Z,29.80
2018-04-12T12:04:06.691Z,30.42
2018-04-12T12:05:09.194Z,30.83
2018-04-12T12:06:11.678Z,31.85
2018-04-12T12:07:14.173Z,30.92
2018-04-12T12:08:16.640Z,37.17
2018-04-12T12:09:19.108Z,34.33
2018-04-12T12:10:21.580Z,31.15
2018-04-12T12:11:24.047Z,28.90
2018-04-12T12:12:27.587Z,32.03
2018-04-12T12:13:30.808Z,28.62
2018-04-12T12:14:34.164Z,30.15
2018-04-12T12:15:36.644Z,29.02
2018-04-12T12:16:39.984Z,30.77
2018-04-12T12:17:43.270Z,32.03
2018-04-12T12:18:45.748Z,32.95
2018-04-12T12:19:48.224Z,31.95
2018-04-12T12:20:50.701Z,29.60
2018-04-12T12:21:53.188Z,27.95
2018-04-12T12:22:56.467Z,28.48
2018-04-12T12:23:58.932Z,28.62
2018-04-12T12:25:01.406Z,27.45
2018-04-12T12:26:04.480Z,26.92
2018-04-12T12:27:06.956Z,28.73
2018-04-12T12:28:09.448Z,28.08
2018-04-12T12:29:11.921Z,29.20
2018-04-12T12:30:14.390Z,29.42
2018-04-12T12:31:16.899Z,26.58
2018-04-12T12:32:19.400Z,27.77
2018-04-12T12:33:22.655Z,26.15
2018-04-12T12:34:25.129Z,28.40
2018-04-12T12:35:28.427Z,27.27
2018-04-12T12:36:31.664Z,28.67
2018-04-12T12:37:34.131Z,31.37
2018-04-12T12:38:36.639Z,27.95
2018-04-12T12:39:39.877Z,24.75
2018-04-12T12:40:42.346Z,26.05
2018-04-12T12:41:44.812Z,24.73
2018-04-12T12:42:47.284Z,22.67
2018-04-12T12:43:50.193Z,19.08
2018-04-12T12:44:53.468Z,19.95
2018-04-12T12:45:56.708Z,19.98
2018-04-12T12:46:59.184Z,20.52
2018-04-12T12:48:01.682Z,21.27
2018-04-12T12:49:04.973Z,20.33
2018-04-12T12:50:08.204Z,20.35
2018-04-12T12:51:10.704Z,20.42
2018-04-12T12:52:13.956Z,20.62
2018-04-12T12:53:16.427Z,23.45
2018-04-12T12:54:18.929Z,19.10
2018-04-12T12:55:22.164Z,20.30
2018-04-12T12:56:24.632Z,22.08
2018-04-12T12:57:27.104Z,20.55
2018-04-12T12:58:29.618Z,21.25
2018-04-12T12:59:32.113Z,20.05
2018-04-12T13:00:34.584Z,21.77
2018-04-12T13:01:37.061Z,20.42
2018-04-12T13:02:39.536Z,20.10
2018-04-12T13:03:42.031Z,19.77
2018-04-12T13:04:45.292Z,21.60
2018-04-12T13:05:47.776Z,28.00
2018-04-12T13:06:51.023Z,28.20
2018-04-12T13:07:53.560Z,24.73
2018-04-12T13:08:56.027Z,24.65
2018-04-12T13:09:58.540Z,21.55
2018-04-12T13:11:01.794Z,19.58
2018-04-12T13:12:04.259Z,20.55
2018-04-12T13:13:06.740Z,18.98
2018-04-12T13:14:09.223Z,18.92
2018-04-12T13:15:12.480Z,18.02
2018-04-12T13:16:14.952Z,17.42
2018-04-12T13:17:18.380Z,17.65
2018-04-12T13:18:20.848Z,17.23
2018-04-12T13:19:23.391Z,17.40
2018-04-12T13:20:25.832Z,17.60
2018-04-12T13:21:28.308Z,17.42
2018-04-12T13:22:32.292Z,17.67
2018-04-12T13:23:34.772Z,16.67
2018-04-12T13:24:38.019Z,16.30
2018-04-12T13:25:40.549Z,15.43
2018-04-12T13:26:43.026Z,15.43
2018-04-12T13:27:45.491Z,16.23
2018-04-12T13:28:48.022Z,15.82
2018-04-12T13:29:50.565Z,15.40
2018-04-12T13:30:53.095Z,16.70
2018-04-12T13:31:55.568Z,15.10
2018-04-12T13:32:58.036Z,14.80
2018-04-12T13:34:00.507Z,16.12
2018-04-12T13:35:03.687Z,16.45
2018-04-12T13:36:06.193Z,15.43
2018-04-12T13:37:09.432Z,16.12
2018-04-12T13:38:13.381Z,15.13